sensor_id;sensor_type;location;lat;lon;timestamp;temperature;humidity
58582;DHT22;44361;51.476;5.700;2022-12-24T00:01:22;10.30;99.90
58582;DHT22;44361;51.476;5.700;2022-12-24T00:03:47;10.20;99.90
58582;DHT22;44361;51.476;5.700;2022-12-24T00:06:19;10.20;99.90
58582;DHT22;44361;51.476;5.700;2022-12-24T00:08:45;10.20;99.90
58582;DHT22;44361;51.476;5.700;2022-12-24T00:11:10;10.10;99.90
58582;DHT22;44361;51.476;5.700;2022-12-24T00:13:36;10.10;99.90
58582;DHT22;44361;51.476;5.700;2022-12-24T00:16:01;10.10;99.90
58582;DHT22;44361;51.476;5.700;2022-12-24T00:18:27;10.10;99.90
58582;DHT22;44361;51.476;5.700;2022-12-24T00:20:53;10.10;99.90
58582;DHT22;44361;51.476;5.700;2022-12-24T00:23:19;10.10;99.90
58582;DHT22;44361;51.476;5.700;2022-12-24T00:25:45;10.10;99.90
58582;DHT22;44361;51.476;5.700;2022-12-24T00:28:12;10.10;99.90
58582;DHT22;44361;51.476;5.700;2022-12-24T00:30:38;10.10;99.90
58582;DHT22;44361;51.476;5.700;2022-12-24T00:33:04;10.10;99.90
58582;DHT22;44361;51.476;5.700;2022-12-24T00:35:32;10.10;99.90
58582;DHT22;44361;51.476;5.700;2022-12-24T00:37:58;10.10;99.90
58582;DHT22;44361;51.476;5.700;2022-12-24T00:40:23;10.20;99.90
58582;DHT22;44361;51.476;5.700;2022-12-24T00:42:49;10.20;99.90
58582;DHT22;44361;51.476;5.700;2022-12-24T00:45:15;10.20;99.90
58582;DHT22;44361;51.476;5.700;2022-12-24T00:47:40;10.20;99.90
58582;DHT22;44361;51.476;5.700;2022-12-24T00:50:06;10.30;99.90
58582;DHT22;44361;51.476;5.700;2022-12-24T00:52:32;10.30;99.90
58582;DHT22;44361;51.476;5.700;2022-12-24T00:54:58;10.20;99.90
58582;DHT22;44361;51.476;5.700;2022-12-24T00:57:23;10.30;99.90
58582;DHT22;44361;51.476;5.700;2022-12-24T00:59:49;10.20;99.90
58582;DHT22;44361;51.476;5.700;2022-12-24T01:02:14;10.20;99.90
58582;DHT22;44361;51.476;5.700;2022-12-24T01:04:40;10.10;99.90
58582;DHT22;44361;51.476;5.700;2022-12-24T01:07:24;10.10;99.90
58582;DHT22;44361;51.476;5.700;2022-12-24T01:09:49;10.10;99.90
58582;DHT22;44361;51.476;5.700;2022-12-24T01:12:15;10.00;99.90
58582;DHT22;44361;51.476;5.700;2022-12-24T01:14:40;9.90;99.90
58582;DHT22;44361;51.476;5.700;2022-12-24T01:17:06;9.90;99.90
58582;DHT22;44361;51.476;5.700;2022-12-24T01:19:32;10.00;99.90
58582;DHT22;44361;51.476;5.700;2022-12-24T01:21:58;10.00;99.90
58582;DHT22;44361;51.476;5.700;2022-12-24T01:24:23;10.00;99.90
58582;DHT22;44361;51.476;5.700;2022-12-24T01:26:49;10.00;99.90
58582;DHT22;44361;51.476;5.700;2022-12-24T01:29:14;10.10;99.90
58582;DHT22;44361;51.476;5.700;2022-12-24T01:31:40;10.00;99.90
58582;DHT22;44361;51.476;5.700;2022-12-24T01:34:06;9.90;99.90
58582;DHT22;44361;51.476;5.700;2022-12-24T01:36:31;9.90;99.90
58582;DHT22;44361;51.476;5.700;2022-12-24T01:38:57;9.80;99.90
58582;DHT22;44361;51.476;5.700;2022-12-24T01:41:23;9.80;99.90
58582;DHT22;44361;51.476;5.700;2022-12-24T01:44:29;9.80;99.90
58582;DHT22;44361;51.476;5.700;2022-12-24T01:49:37;9.70;99.90
58582;DHT22;44361;51.476;5.700;2022-12-24T01:52:12;9.70;99.90
58582;DHT22;44361;51.476;5.700;2022-12-24T01:54:55;9.60;99.90
58582;DHT22;44361;51.476;5.700;2022-12-24T01:57:29;9.50;99.90
58582;DHT22;44361;51.476;5.700;2022-12-24T01:59:59;9.50;99.90
58582;DHT22;44361;51.476;5.700;2022-12-24T02:02:26;9.50;99.90
58582;DHT22;44361;51.476;5.700;2022-12-24T02:05:00;9.50;99.90
58582;DHT22;44361;51.476;5.700;2022-12-24T02:07:27;9.60;99.90
58582;DHT22;44361;51.476;5.700;2022-12-24T02:09:56;9.50;99.90
58582;DHT22;44361;51.476;5.700;2022-12-24T02:12:23;9.50;99.90
58582;DHT22;44361;51.476;5.700;2022-12-24T02:14:49;9.60;99.90
58582;DHT22;44361;51.476;5.700;2022-12-24T02:17:20;9.60;99.90
58582;DHT22;44361;51.476;5.700;2022-12-24T02:22:55;9.70;99.90
58582;DHT22;44361;51.476;5.700;2022-12-24T02:31:23;9.90;99.90
58582;DHT22;44361;51.476;5.700;2022-12-24T02:33:54;10.00;99.90
58582;DHT22;44361;51.476;5.700;2022-12-24T02:36:26;10.10;99.90
58582;DHT22;44361;51.476;5.700;2022-12-24T02:39:05;10.10;99.90
58582;DHT22;44361;51.476;5.700;2022-12-24T02:41:35;10.10;99.90
58582;DHT22;44361;51.476;5.700;2022-12-24T02:44:22;10.20;99.90
58582;DHT22;44361;51.476;5.700;2022-12-24T02:46:49;10.20;99.90
58582;DHT22;44361;51.476;5.700;2022-12-24T02:49:15;10.20;99.90
58582;DHT22;44361;51.476;5.700;2022-12-24T02:51:41;10.20;99.90
58582;DHT22;44361;51.476;5.700;2022-12-24T02:54:06;10.30;99.90
58582;DHT22;44361;51.476;5.700;2022-12-24T02:59:56;10.40;99.90
58582;DHT22;44361;51.476;5.700;2022-12-24T03:02:44;10.50;99.90
58582;DHT22;44361;51.476;5.700;2022-12-24T03:05:25;10.40;99.90
58582;DHT22;44361;51.476;5.700;2022-12-24T03:08:11;10.50;99.90
58582;DHT22;44361;51.476;5.700;2022-12-24T03:11:07;10.50;99.90
58582;DHT22;44361;51.476;5.700;2022-12-24T03:13:33;10.40;99.90
58582;DHT22;44361;51.476;5.700;2022-12-24T03:15:59;10.30;99.90
58582;DHT22;44361;51.476;5.700;2022-12-24T03:18:28;10.20;99.90
58582;DHT22;44361;51.476;5.700;2022-12-24T03:21:01;10.20;99.90
58582;DHT22;44361;51.476;5.700;2022-12-24T03:23:29;10.20;99.90
58582;DHT22;44361;51.476;5.700;2022-12-24T03:25:55;10.20;99.90
58582;DHT22;44361;51.476;5.700;2022-12-24T03:28:25;10.20;99.90
58582;DHT22;44361;51.476;5.700;2022-12-24T03:30:51;10.20;99.90
58582;DHT22;44361;51.476;5.700;2022-12-24T03:33:17;10.20;99.90
58582;DHT22;44361;51.476;5.700;2022-12-24T03:35:43;10.20;99.90
58582;DHT22;44361;51.476;5.700;2022-12-24T03:38:08;10.20;99.90
58582;DHT22;44361;51.476;5.700;2022-12-24T03:40:34;10.20;99.90
58582;DHT22;44361;51.476;5.700;2022-12-24T03:42:59;10.20;99.90
58582;DHT22;44361;51.476;5.700;2022-12-24T03:45:25;10.20;99.90
58582;DHT22;44361;51.476;5.700;2022-12-24T03:47:51;10.30;99.90
58582;DHT22;44361;51.476;5.700;2022-12-24T03:50:16;10.30;99.90
58582;DHT22;44361;51.476;5.700;2022-12-24T03:52:41;10.30;99.90
58582;DHT22;44361;51.476;5.700;2022-12-24T03:55:07;10.30;99.90
58582;DHT22;44361;51.476;5.700;2022-12-24T03:57:33;10.30;99.90
58582;DHT22;44361;51.476;5.700;2022-12-24T03:59:58;10.30;99.90
58582;DHT22;44361;51.476;5.700;2022-12-24T04:02:24;10.40;99.90
58582;DHT22;44361;51.476;5.700;2022-12-24T04:04:49;10.40;99.90
58582;DHT22;44361;51.476;5.700;2022-12-24T04:07:15;10.40;99.90
58582;DHT22;44361;51.476;5.700;2022-12-24T04:09:40;10.40;99.90
58582;DHT22;44361;51.476;5.700;2022-12-24T04:12:06;10.40;99.90
58582;DHT22;44361;51.476;5.700;2022-12-24T04:14:32;10.30;99.90
58582;DHT22;44361;51.476;5.700;2022-12-24T04:16:58;10.20;99.90
58582;DHT22;44361;51.476;5.700;2022-12-24T04:19:23;10.20;99.90
58582;DHT22;44361;51.476;5.700;2022-12-24T04:21:49;10.30;99.90
58582;DHT22;44361;51.476;5.700;2022-12-24T04:24:15;10.30;99.90
58582;DHT22;44361;51.476;5.700;2022-12-24T04:26:40;10.30;99.90
58582;DHT22;44361;51.476;5.700;2022-12-24T04:29:06;10.30;99.90
58582;DHT22;44361;51.476;5.700;2022-12-24T04:31:31;10.30;99.90
58582;DHT22;44361;51.476;5.700;2022-12-24T04:33:57;10.20;99.90
58582;DHT22;44361;51.476;5.700;2022-12-24T04:36:22;10.20;99.90
58582;DHT22;44361;51.476;5.700;2022-12-24T04:38:48;10.20;99.90
58582;DHT22;44361;51.476;5.700;2022-12-24T04:41:16;10.10;99.90
58582;DHT22;44361;51.476;5.700;2022-12-24T04:43:42;10.10;99.90
58582;DHT22;44361;51.476;5.700;2022-12-24T04:46:10;10.10;99.90
58582;DHT22;44361;51.476;5.700;2022-12-24T04:48:39;10.10;99.90
58582;DHT22;44361;51.476;5.700;2022-12-24T04:51:06;10.00;99.90
58582;DHT22;44361;51.476;5.700;2022-12-24T04:53:33;9.90;99.90
58582;DHT22;44361;51.476;5.700;2022-12-24T04:55:59;9.80;99.90
58582;DHT22;44361;51.476;5.700;2022-12-24T04:58:25;9.80;99.90
58582;DHT22;44361;51.476;5.700;2022-12-24T05:00:51;9.80;99.90
58582;DHT22;44361;51.476;5.700;2022-12-24T05:03:16;9.80;99.90
58582;DHT22;44361;51.476;5.700;2022-12-24T05:05:42;9.80;99.90
58582;DHT22;44361;51.476;5.700;2022-12-24T05:08:07;9.80;99.90
58582;DHT22;44361;51.476;5.700;2022-12-24T05:10:33;9.80;99.90
58582;DHT22;44361;51.476;5.700;2022-12-24T05:12:58;9.80;99.90
58582;DHT22;44361;51.476;5.700;2022-12-24T05:15:24;9.90;99.90
58582;DHT22;44361;51.476;5.700;2022-12-24T05:17:49;9.90;99.90
58582;DHT22;44361;51.476;5.700;2022-12-24T05:20:15;9.90;99.90
58582;DHT22;44361;51.476;5.700;2022-12-24T05:22:41;9.90;99.90
58582;DHT22;44361;51.476;5.700;2022-12-24T05:25:31;9.80;99.90
58582;DHT22;44361;51.476;5.700;2022-12-24T05:28:16;9.90;99.90
58582;DHT22;44361;51.476;5.700;2022-12-24T05:30:42;9.80;99.90
58582;DHT22;44361;51.476;5.700;2022-12-24T05:33:07;9.80;99.90
58582;DHT22;44361;51.476;5.700;2022-12-24T05:35:33;9.70;99.90
58582;DHT22;44361;51.476;5.700;2022-12-24T05:37:59;9.70;99.90
58582;DHT22;44361;51.476;5.700;2022-12-24T05:40:24;9.80;99.90
58582;DHT22;44361;51.476;5.700;2022-12-24T05:42:50;9.80;99.90
58582;DHT22;44361;51.476;5.700;2022-12-24T05:45:15;9.80;99.90
58582;DHT22;44361;51.476;5.700;2022-12-24T05:47:41;9.70;99.90
58582;DHT22;44361;51.476;5.700;2022-12-24T05:50:07;9.70;99.90
58582;DHT22;44361;51.476;5.700;2022-12-24T05:52:33;9.60;99.90
58582;DHT22;44361;51.476;5.700;2022-12-24T05:54:58;9.60;99.90
58582;DHT22;44361;51.476;5.700;2022-12-24T05:57:24;9.50;99.90
58582;DHT22;44361;51.476;5.700;2022-12-24T05:59:49;9.50;99.90
58582;DHT22;44361;51.476;5.700;2022-12-24T06:02:15;9.60;99.90
58582;DHT22;44361;51.476;5.700;2022-12-24T06:04:40;9.60;99.90
58582;DHT22;44361;51.476;5.700;2022-12-24T06:07:06;9.60;99.90
58582;DHT22;44361;51.476;5.700;2022-12-24T06:09:31;9.60;99.90
58582;DHT22;44361;51.476;5.700;2022-12-24T06:11:57;9.60;99.90
58582;DHT22;44361;51.476;5.700;2022-12-24T06:14:22;9.70;99.90
58582;DHT22;44361;51.476;5.700;2022-12-24T06:16:48;9.60;99.90
58582;DHT22;44361;51.476;5.700;2022-12-24T06:19:13;9.60;99.90
58582;DHT22;44361;51.476;5.700;2022-12-24T06:21:39;9.50;99.90
58582;DHT22;44361;51.476;5.700;2022-12-24T06:24:05;9.40;99.90
58582;DHT22;44361;51.476;5.700;2022-12-24T06:26:30;9.40;99.90
58582;DHT22;44361;51.476;5.700;2022-12-24T06:28:56;9.40;99.90
58582;DHT22;44361;51.476;5.700;2022-12-24T06:31:22;9.30;99.90
58582;DHT22;44361;51.476;5.700;2022-12-24T06:33:48;9.30;99.90
58582;DHT22;44361;51.476;5.700;2022-12-24T06:36:19;9.30;99.90
58582;DHT22;44361;51.476;5.700;2022-12-24T06:38:45;9.30;99.90
58582;DHT22;44361;51.476;5.700;2022-12-24T06:41:11;9.30;99.90
58582;DHT22;44361;51.476;5.700;2022-12-24T06:43:37;9.20;99.90
58582;DHT22;44361;51.476;5.700;2022-12-24T06:46:03;9.10;99.90
58582;DHT22;44361;51.476;5.700;2022-12-24T06:48:29;9.10;99.90
58582;DHT22;44361;51.476;5.700;2022-12-24T06:50:54;9.10;99.90
58582;DHT22;44361;51.476;5.700;2022-12-24T06:53:20;9.00;99.90
58582;DHT22;44361;51.476;5.700;2022-12-24T06:55:47;9.10;99.90
58582;DHT22;44361;51.476;5.700;2022-12-24T06:58:12;9.10;99.90
58582;DHT22;44361;51.476;5.700;2022-12-24T07:00:38;9.10;99.90
58582;DHT22;44361;51.476;5.700;2022-12-24T07:03:04;9.20;99.90
58582;DHT22;44361;51.476;5.700;2022-12-24T07:05:29;9.10;99.90
58582;DHT22;44361;51.476;5.700;2022-12-24T07:07:55;9.10;99.90
58582;DHT22;44361;51.476;5.700;2022-12-24T07:10:20;9.10;99.90
58582;DHT22;44361;51.476;5.700;2022-12-24T07:12:46;9.00;99.90
58582;DHT22;44361;51.476;5.700;2022-12-24T07:15:13;9.20;99.90
58582;DHT22;44361;51.476;5.700;2022-12-24T07:17:38;9.20;99.90
58582;DHT22;44361;51.476;5.700;2022-12-24T07:20:05;9.20;99.90
58582;DHT22;44361;51.476;5.700;2022-12-24T07:22:31;9.10;99.90
58582;DHT22;44361;51.476;5.700;2022-12-24T07:24:57;9.10;99.90
58582;DHT22;44361;51.476;5.700;2022-12-24T07:27:22;9.00;99.90
58582;DHT22;44361;51.476;5.700;2022-12-24T07:29:48;9.10;99.90
58582;DHT22;44361;51.476;5.700;2022-12-24T07:32:13;9.10;99.90
58582;DHT22;44361;51.476;5.700;2022-12-24T07:34:39;9.10;99.90
58582;DHT22;44361;51.476;5.700;2022-12-24T07:37:05;9.20;99.90
58582;DHT22;44361;51.476;5.700;2022-12-24T07:39:31;9.10;99.90
58582;DHT22;44361;51.476;5.700;2022-12-24T07:41:56;9.10;99.90
58582;DHT22;44361;51.476;5.700;2022-12-24T07:44:22;9.00;99.90
58582;DHT22;44361;51.476;5.700;2022-12-24T07:46:47;9.00;99.90
58582;DHT22;44361;51.476;5.700;2022-12-24T07:49:13;9.00;99.90
58582;DHT22;44361;51.476;5.700;2022-12-24T07:51:38;9.10;99.90
58582;DHT22;44361;51.476;5.700;2022-12-24T07:54:04;9.10;99.90
58582;DHT22;44361;51.476;5.700;2022-12-24T07:56:30;9.20;99.90
58582;DHT22;44361;51.476;5.700;2022-12-24T07:58:56;9.20;99.90
58582;DHT22;44361;51.476;5.700;2022-12-24T08:01:22;9.20;99.90
58582;DHT22;44361;51.476;5.700;2022-12-24T08:03:47;9.10;99.90
58582;DHT22;44361;51.476;5.700;2022-12-24T08:06:15;9.10;99.90
58582;DHT22;44361;51.476;5.700;2022-12-24T08:08:41;9.10;99.90
58582;DHT22;44361;51.476;5.700;2022-12-24T08:11:06;9.10;99.90
58582;DHT22;44361;51.476;5.700;2022-12-24T08:13:33;9.10;99.90
58582;DHT22;44361;51.476;5.700;2022-12-24T08:15:59;9.20;99.90
58582;DHT22;44361;51.476;5.700;2022-12-24T08:18:25;9.30;99.90
58582;DHT22;44361;51.476;5.700;2022-12-24T08:20:50;9.30;99.90
58582;DHT22;44361;51.476;5.700;2022-12-24T08:23:17;9.40;99.90
58582;DHT22;44361;51.476;5.700;2022-12-24T08:25:47;9.50;99.90
58582;DHT22;44361;51.476;5.700;2022-12-24T08:28:15;9.60;99.90
58582;DHT22;44361;51.476;5.700;2022-12-24T08:30:41;9.70;99.90
58582;DHT22;44361;51.476;5.700;2022-12-24T08:33:07;9.80;99.90
58582;DHT22;44361;51.476;5.700;2022-12-24T08:35:33;9.80;99.90
58582;DHT22;44361;51.476;5.700;2022-12-24T08:37:58;9.70;99.90
58582;DHT22;44361;51.476;5.700;2022-12-24T08:40:24;9.70;99.90
58582;DHT22;44361;51.476;5.700;2022-12-24T08:42:50;9.80;99.90
58582;DHT22;44361;51.476;5.700;2022-12-24T08:45:15;9.80;99.90
58582;DHT22;44361;51.476;5.700;2022-12-24T08:47:41;9.90;99.90
58582;DHT22;44361;51.476;5.700;2022-12-24T08:50:08;9.90;99.90
58582;DHT22;44361;51.476;5.700;2022-12-24T08:52:34;9.90;99.90
58582;DHT22;44361;51.476;5.700;2022-12-24T08:54:59;9.80;99.90
58582;DHT22;44361;51.476;5.700;2022-12-24T08:57:25;9.80;99.90
58582;DHT22;44361;51.476;5.700;2022-12-24T08:59:50;9.80;99.90
58582;DHT22;44361;51.476;5.700;2022-12-24T09:02:16;9.80;99.90
58582;DHT22;44361;51.476;5.700;2022-12-24T09:04:41;9.80;99.90
58582;DHT22;44361;51.476;5.700;2022-12-24T09:07:08;9.80;99.90
58582;DHT22;44361;51.476;5.700;2022-12-24T09:09:34;9.80;99.90
58582;DHT22;44361;51.476;5.700;2022-12-24T09:12:00;9.80;99.90
58582;DHT22;44361;51.476;5.700;2022-12-24T09:14:25;9.80;99.90
58582;DHT22;44361;51.476;5.700;2022-12-24T09:16:51;9.80;99.90
58582;DHT22;44361;51.476;5.700;2022-12-24T09:19:16;9.80;99.90
58582;DHT22;44361;51.476;5.700;2022-12-24T09:21:42;9.80;99.90
58582;DHT22;44361;51.476;5.700;2022-12-24T09:24:07;10.00;99.90
58582;DHT22;44361;51.476;5.700;2022-12-24T09:26:33;10.10;99.90
58582;DHT22;44361;51.476;5.700;2022-12-24T09:29:01;10.20;99.90
58582;DHT22;44361;51.476;5.700;2022-12-24T09:31:27;10.30;99.90
58582;DHT22;44361;51.476;5.700;2022-12-24T09:33:53;10.40;99.90
58582;DHT22;44361;51.476;5.700;2022-12-24T09:36:19;10.40;99.90
58582;DHT22;44361;51.476;5.700;2022-12-24T09:38:45;10.50;99.90
58582;DHT22;44361;51.476;5.700;2022-12-24T09:41:15;10.60;99.90
58582;DHT22;44361;51.476;5.700;2022-12-24T09:43:50;10.70;99.90
58582;DHT22;44361;51.476;5.700;2022-12-24T09:46:24;10.70;99.90
58582;DHT22;44361;51.476;5.700;2022-12-24T09:48:52;10.70;99.90
58582;DHT22;44361;51.476;5.700;2022-12-24T09:54:27;10.70;99.90
58582;DHT22;44361;51.476;5.700;2022-12-24T09:56:56;10.80;99.90
58582;DHT22;44361;51.476;5.700;2022-12-24T09:59:32;10.90;99.90
58582;DHT22;44361;51.476;5.700;2022-12-24T10:02:09;11.00;99.90
58582;DHT22;44361;51.476;5.700;2022-12-24T10:04:35;11.00;99.90
58582;DHT22;44361;51.476;5.700;2022-12-24T10:07:27;10.90;99.90
58582;DHT22;44361;51.476;5.700;2022-12-24T10:15:34;10.80;99.90
58582;DHT22;44361;51.476;5.700;2022-12-24T10:18:15;10.80;99.90
58582;DHT22;44361;51.476;5.700;2022-12-24T10:20:52;10.80;99.90
58582;DHT22;44361;51.476;5.700;2022-12-24T10:23:37;11.00;99.90
58582;DHT22;44361;51.476;5.700;2022-12-24T10:26:29;11.00;99.90
58582;DHT22;44361;51.476;5.700;2022-12-24T10:29:01;11.00;99.90
58582;DHT22;44361;51.476;5.700;2022-12-24T10:31:34;11.00;99.90
58582;DHT22;44361;51.476;5.700;2022-12-24T10:34:11;11.00;99.90
58582;DHT22;44361;51.476;5.700;2022-12-24T10:36:38;11.00;99.90
58582;DHT22;44361;51.476;5.700;2022-12-24T10:39:03;11.20;99.90
58582;DHT22;44361;51.476;5.700;2022-12-24T10:41:29;11.30;99.90
58582;DHT22;44361;51.476;5.700;2022-12-24T10:43:56;11.30;99.90
58582;DHT22;44361;51.476;5.700;2022-12-24T10:46:30;11.40;99.90
58582;DHT22;44361;51.476;5.700;2022-12-24T10:49:00;11.40;99.90
58582;DHT22;44361;51.476;5.700;2022-12-24T10:52:23;11.20;99.90
58582;DHT22;44361;51.476;5.700;2022-12-24T10:54:25;11.20;99.90
58582;DHT22;44361;51.476;5.700;2022-12-24T10:56:56;11.10;99.90
58582;DHT22;44361;51.476;5.700;2022-12-24T10:59:40;11.00;99.90
58582;DHT22;44361;51.476;5.700;2022-12-24T11:04:52;10.90;99.90
58582;DHT22;44361;51.476;5.700;2022-12-24T11:07:22;11.00;99.90
58582;DHT22;44361;51.476;5.700;2022-12-24T11:10:00;11.00;99.90
58582;DHT22;44361;51.476;5.700;2022-12-24T11:12:29;11.10;99.90
58582;DHT22;44361;51.476;5.700;2022-12-24T11:15:01;11.10;99.90
58582;DHT22;44361;51.476;5.700;2022-12-24T11:17:27;11.00;99.90
58582;DHT22;44361;51.476;5.700;2022-12-24T11:19:53;11.00;99.90
58582;DHT22;44361;51.476;5.700;2022-12-24T11:22:27;10.90;99.90
58582;DHT22;44361;51.476;5.700;2022-12-24T11:25:06;11.00;99.90
58582;DHT22;44361;51.476;5.700;2022-12-24T11:27:49;11.10;99.90
58582;DHT22;44361;51.476;5.700;2022-12-24T11:32:42;11.30;99.90
58582;DHT22;44361;51.476;5.700;2022-12-24T11:35:16;11.40;99.90
58582;DHT22;44361;51.476;5.700;2022-12-24T11:37:42;11.40;99.90
58582;DHT22;44361;51.476;5.700;2022-12-24T11:40:19;11.40;99.90
58582;DHT22;44361;51.476;5.700;2022-12-24T11:42:45;11.40;99.90
58582;DHT22;44361;51.476;5.700;2022-12-24T11:45:26;11.40;99.90
58582;DHT22;44361;51.476;5.700;2022-12-24T11:47:53;11.50;99.90
58582;DHT22;44361;51.476;5.700;2022-12-24T11:53:11;11.50;99.90
58582;DHT22;44361;51.476;5.700;2022-12-24T11:55:55;11.40;99.90
58582;DHT22;44361;51.476;5.700;2022-12-24T12:01:16;11.50;99.90
58582;DHT22;44361;51.476;5.700;2022-12-24T12:03:50;11.50;99.90
58582;DHT22;44361;51.476;5.700;2022-12-24T12:06:36;11.60;99.90
58582;DHT22;44361;51.476;5.700;2022-12-24T12:09:06;11.80;99.90
58582;DHT22;44361;51.476;5.700;2022-12-24T12:11:38;11.90;99.90
58582;DHT22;44361;51.476;5.700;2022-12-24T12:14:04;11.80;99.90
58582;DHT22;44361;51.476;5.700;2022-12-24T12:16:51;11.80;99.90
58582;DHT22;44361;51.476;5.700;2022-12-24T12:19:42;11.70;99.90
58582;DHT22;44361;51.476;5.700;2022-12-24T12:25:02;11.50;99.90
58582;DHT22;44361;51.476;5.700;2022-12-24T12:27:36;11.60;99.90
58582;DHT22;44361;51.476;5.700;2022-12-24T12:30:09;11.70;99.90
58582;DHT22;44361;51.476;5.700;2022-12-24T12:35:30;11.80;99.90
58582;DHT22;44361;51.476;5.700;2022-12-24T12:38:00;11.70;99.90
58582;DHT22;44361;51.476;5.700;2022-12-24T12:56:52;11.70;99.90
58582;DHT22;44361;51.476;5.700;2022-12-24T13:05:12;11.60;99.90
58582;DHT22;44361;51.476;5.700;2022-12-24T13:10:47;11.40;99.90
58582;DHT22;44361;51.476;5.700;2022-12-24T13:16:33;11.20;99.90
58582;DHT22;44361;51.476;5.700;2022-12-24T13:22:16;11.10;99.90
58582;DHT22;44361;51.476;5.700;2022-12-24T13:25:01;11.10;99.90
58582;DHT22;44361;51.476;5.700;2022-12-24T13:27:28;11.10;99.90
58582;DHT22;44361;51.476;5.700;2022-12-24T13:30:08;11.10;99.90
58582;DHT22;44361;51.476;5.700;2022-12-24T13:32:51;11.20;99.90
58582;DHT22;44361;51.476;5.700;2022-12-24T13:37:43;11.40;99.90
58582;DHT22;44361;51.476;5.700;2022-12-24T13:43:06;11.60;99.90
58582;DHT22;44361;51.476;5.700;2022-12-24T13:50:46;11.70;99.90
58582;DHT22;44361;51.476;5.700;2022-12-24T13:53:36;11.80;99.90
58582;DHT22;44361;51.476;5.700;2022-12-24T13:58:40;11.70;99.90
58582;DHT22;44361;51.476;5.700;2022-12-24T14:01:37;11.60;99.90
58582;DHT22;44361;51.476;5.700;2022-12-24T14:04:06;11.40;99.90
58582;DHT22;44361;51.476;5.700;2022-12-24T14:06:41;11.30;99.90
58582;DHT22;44361;51.476;5.700;2022-12-24T14:09:10;11.20;99.90
58582;DHT22;44361;51.476;5.700;2022-12-24T14:14:34;11.10;99.90
58582;DHT22;44361;51.476;5.700;2022-12-24T14:17:02;11.00;99.90
58582;DHT22;44361;51.476;5.700;2022-12-24T14:19:46;10.90;99.90
58582;DHT22;44361;51.476;5.700;2022-12-24T14:25:11;11.00;99.90
58582;DHT22;44361;51.476;5.700;2022-12-24T14:27:43;10.90;99.90
58582;DHT22;44361;51.476;5.700;2022-12-24T14:32:49;10.70;99.90
58582;DHT22;44361;51.476;5.700;2022-12-24T14:35:27;10.60;99.90
58582;DHT22;44361;51.476;5.700;2022-12-24T14:38:05;10.60;99.90
58582;DHT22;44361;51.476;5.700;2022-12-24T14:40:34;10.50;99.90
58582;DHT22;44361;51.476;5.700;2022-12-24T14:46:14;10.40;99.90
58582;DHT22;44361;51.476;5.700;2022-12-24T14:48:55;10.30;99.90
58582;DHT22;44361;51.476;5.700;2022-12-24T14:57:19;10.20;99.90
58582;DHT22;44361;51.476;5.700;2022-12-24T15:02:37;9.90;99.90
58582;DHT22;44361;51.476;5.700;2022-12-24T15:05:17;9.80;99.90
58582;DHT22;44361;51.476;5.700;2022-12-24T15:07:58;9.70;99.90
58582;DHT22;44361;51.476;5.700;2022-12-24T15:10:45;9.70;99.90
58582;DHT22;44361;51.476;5.700;2022-12-24T15:15:47;9.50;99.90
58582;DHT22;44361;51.476;5.700;2022-12-24T15:18:14;9.30;99.90
58582;DHT22;44361;51.476;5.700;2022-12-24T15:20:46;9.30;99.90
58582;DHT22;44361;51.476;5.700;2022-12-24T15:23:33;9.20;99.90
58582;DHT22;44361;51.476;5.700;2022-12-24T15:28:43;9.10;99.90
58582;DHT22;44361;51.476;5.700;2022-12-24T15:31:21;8.90;99.90
58582;DHT22;44361;51.476;5.700;2022-12-24T15:33:50;8.80;99.90
58582;DHT22;44361;51.476;5.700;2022-12-24T15:36:44;8.70;99.90
58582;DHT22;44361;51.476;5.700;2022-12-24T15:39:13;8.70;99.90
58582;DHT22;44361;51.476;5.700;2022-12-24T15:41:43;8.70;99.90
58582;DHT22;44361;51.476;5.700;2022-12-24T15:44:35;8.60;99.90
58582;DHT22;44361;51.476;5.700;2022-12-24T15:47:04;8.60;99.90
58582;DHT22;44361;51.476;5.700;2022-12-24T15:49:32;8.60;99.90
58582;DHT22;44361;51.476;5.700;2022-12-24T15:52:09;8.60;99.90
58582;DHT22;44361;51.476;5.700;2022-12-24T15:54:36;8.50;99.90
58582;DHT22;44361;51.476;5.700;2022-12-24T15:59:51;8.50;99.90
58582;DHT22;44361;51.476;5.700;2022-12-24T16:02:30;8.40;99.90
58582;DHT22;44361;51.476;5.700;2022-12-24T16:11:09;8.30;99.90
58582;DHT22;44361;51.476;5.700;2022-12-24T16:13:39;8.30;99.90
58582;DHT22;44361;51.476;5.700;2022-12-24T16:16:07;8.20;99.90
58582;DHT22;44361;51.476;5.700;2022-12-24T16:18:52;8.20;99.90
58582;DHT22;44361;51.476;5.700;2022-12-24T16:21:24;8.10;99.90
58582;DHT22;44361;51.476;5.700;2022-12-24T16:23:54;8.10;99.90
58582;DHT22;44361;51.476;5.700;2022-12-24T16:26:20;8.00;99.90
58582;DHT22;44361;51.476;5.700;2022-12-24T16:28:46;8.00;99.90
58582;DHT22;44361;51.476;5.700;2022-12-24T16:31:16;8.00;99.90
58582;DHT22;44361;51.476;5.700;2022-12-24T16:33:43;7.90;99.90
58582;DHT22;44361;51.476;5.700;2022-12-24T16:36:09;7.90;99.90
58582;DHT22;44361;51.476;5.700;2022-12-24T16:38:35;7.90;99.90
58582;DHT22;44361;51.476;5.700;2022-12-24T16:41:21;7.90;99.90
58582;DHT22;44361;51.476;5.700;2022-12-24T16:43:47;7.80;99.90
58582;DHT22;44361;51.476;5.700;2022-12-24T16:46:15;7.90;99.90
58582;DHT22;44361;51.476;5.700;2022-12-24T16:48:44;7.80;99.90
58582;DHT22;44361;51.476;5.700;2022-12-24T16:51:11;7.80;99.90
58582;DHT22;44361;51.476;5.700;2022-12-24T16:53:36;7.90;99.90
58582;DHT22;44361;51.476;5.700;2022-12-24T16:56:02;7.90;99.90
58582;DHT22;44361;51.476;5.700;2022-12-24T16:58:28;7.90;99.90
58582;DHT22;44361;51.476;5.700;2022-12-24T17:00:54;7.90;99.90
58582;DHT22;44361;51.476;5.700;2022-12-24T17:03:20;7.80;99.90
58582;DHT22;44361;51.476;5.700;2022-12-24T17:05:46;7.80;99.90
58582;DHT22;44361;51.476;5.700;2022-12-24T17:08:12;7.80;99.90
58582;DHT22;44361;51.476;5.700;2022-12-24T17:10:38;7.70;99.90
58582;DHT22;44361;51.476;5.700;2022-12-24T17:13:04;7.70;99.90
58582;DHT22;44361;51.476;5.700;2022-12-24T17:15:29;7.70;99.90
58582;DHT22;44361;51.476;5.700;2022-12-24T17:17:55;7.70;99.90
58582;DHT22;44361;51.476;5.700;2022-12-24T17:20:21;7.70;99.90
58582;DHT22;44361;51.476;5.700;2022-12-24T17:22:48;7.70;99.90
58582;DHT22;44361;51.476;5.700;2022-12-24T17:25:13;7.60;99.90
58582;DHT22;44361;51.476;5.700;2022-12-24T17:27:39;7.60;99.90
58582;DHT22;44361;51.476;5.700;2022-12-24T17:30:06;7.60;99.90
58582;DHT22;44361;51.476;5.700;2022-12-24T17:32:31;7.50;99.90
58582;DHT22;44361;51.476;5.700;2022-12-24T17:34:57;7.60;99.90
58582;DHT22;44361;51.476;5.700;2022-12-24T17:37:25;7.60;99.90
58582;DHT22;44361;51.476;5.700;2022-12-24T17:39:50;7.60;99.90
58582;DHT22;44361;51.476;5.700;2022-12-24T17:42:16;7.60;99.90
58582;DHT22;44361;51.476;5.700;2022-12-24T17:44:41;7.60;99.90
58582;DHT22;44361;51.476;5.700;2022-12-24T17:47:07;7.60;99.90
58582;DHT22;44361;51.476;5.700;2022-12-24T17:49:32;7.50;99.90